createdAt,value
2023-01-09T00:00:47.452Z,8.37
2023-01-09T00:01:45.635Z,8.34
2023-01-09T00:02:45.831Z,8.34
2023-01-09T00:03:47.453Z,8.34
2023-01-09T00:06:02.847Z,8.34
2023-01-09T00:07:03.384Z,8.34
2023-01-09T00:08:03.792Z,8.34
2023-01-09T00:09:03.450Z,8.33
2023-01-09T00:10:03.281Z,8.33
2023-01-09T00:11:03.468Z,8.34
2023-01-09T00:12:03.405Z,8.33
2023-01-09T00:13:04.177Z,8.31
2023-01-09T00:14:03.459Z,8.33
2023-01-09T00:15:03.612Z,8.33
2023-01-09T00:16:03.594Z,8.33
2023-01-09T00:17:03.463Z,8.31
2023-01-09T00:18:03.268Z,8.31
2023-01-09T00:19:03.612Z,8.31
2023-01-09T00:20:03.420Z,8.30
2023-01-09T00:21:03.371Z,8.28
2023-01-09T00:22:03.097Z,8.30
2023-01-09T00:23:03.686Z,8.30
2023-01-09T00:24:03.309Z,8.30
2023-01-09T00:25:03.162Z,8.30
2023-01-09T00:26:04.253Z,8.30
2023-01-09T00:27:03.385Z,8.31
2023-01-09T00:28:04.363Z,8.31
2023-01-09T00:29:04.868Z,8.30
2023-01-09T00:30:03.444Z,8.30
2023-01-09T00:31:03.900Z,8.30
2023-01-09T00:32:03.318Z,8.30
2023-01-09T00:33:03.397Z,8.30
2023-01-09T00:34:03.314Z,8.31
2023-01-09T00:35:03.022Z,8.30
2023-01-09T00:36:03.036Z,8.31
2023-01-09T00:37:02.850Z,8.30
2023-01-09T00:38:05.799Z,8.30
2023-01-09T00:39:03.957Z,8.31
2023-01-09T00:40:03.376Z,8.31
2023-01-09T00:41:03.390Z,8.33
2023-01-09T00:42:03.076Z,8.33
2023-01-09T00:43:05.683Z,8.34
2023-01-09T00:44:03.614Z,8.34
2023-01-09T00:45:03.640Z,8.34
2023-01-09T00:46:03.930Z,8.34
2023-01-09T00:47:03.336Z,8.34
2023-01-09T00:48:02.838Z,8.33
2023-01-09T00:49:02.900Z,8.33
2023-01-09T00:50:03.723Z,8.31
2023-01-09T00:51:03.477Z,8.33
2023-01-09T00:52:03.550Z,8.31
2023-01-09T00:53:02.789Z,8.31
2023-01-09T00:54:02.826Z,8.30
2023-01-09T00:55:02.935Z,8.30
2023-01-09T00:56:02.893Z,8.30
2023-01-09T00:57:04.462Z,8.28
2023-01-09T00:58:02.915Z,8.27
2023-01-09T00:59:03.183Z,8.27
2023-01-09T01:00:02.757Z,8.26
2023-01-09T01:01:03.036Z,8.23
2023-01-09T01:02:02.956Z,8.24
2023-01-09T01:03:02.974Z,8.23
2023-01-09T01:04:02.968Z,8.23
2023-01-09T01:05:02.917Z,8.23
2023-01-09T01:06:02.543Z,8.23
2023-01-09T01:07:02.640Z,8.23
2023-01-09T01:08:02.570Z,8.23
2023-01-09T01:09:02.551Z,8.20
2023-01-09T01:10:02.791Z,8.23
2023-01-09T01:11:03.024Z,8.20
2023-01-09T01:12:02.768Z,8.20
2023-01-09T01:13:02.701Z,8.18
2023-01-09T01:14:03.101Z,8.16
2023-01-09T01:15:03.271Z,8.18
2023-01-09T01:16:02.573Z,8.18
2023-01-09T01:17:02.592Z,8.18
2023-01-09T01:18:02.570Z,8.18
2023-01-09T01:19:02.642Z,8.16
2023-01-09T01:20:02.620Z,8.15
2023-01-09T01:21:02.369Z,8.13
2023-01-09T01:22:02.424Z,8.15
2023-01-09T01:23:02.388Z,8.12
2023-01-09T01:24:02.485Z,8.10
2023-01-09T01:25:02.437Z,8.09
2023-01-09T01:26:02.401Z,8.10
2023-01-09T01:27:02.426Z,8.12
2023-01-09T01:28:02.312Z,8.10
2023-01-09T01:29:02.612Z,8.10
2023-01-09T01:30:02.359Z,8.09
2023-01-09T01:31:02.353Z,8.09
2023-01-09T01:32:02.437Z,8.09
2023-01-09T01:33:02.531Z,8.08
2023-01-09T01:34:02.240Z,8.06
2023-01-09T01:35:02.279Z,8.05
2023-01-09T01:36:02.199Z,8.08
2023-01-09T01:37:02.244Z,8.08
2023-01-09T01:38:02.220Z,8.06
2023-01-09T01:39:02.388Z,8.01
2023-01-09T01:40:02.238Z,8.05
2023-01-09T01:41:02.511Z,8.05
2023-01-09T01:42:02.149Z,8.03
2023-01-09T01:43:02.142Z,8.05
2023-01-09T01:44:02.136Z,8.01
2023-01-09T01:45:02.239Z,8.01
2023-01-09T01:46:02.213Z,8.01
2023-01-09T01:47:02.126Z,8.01
2023-01-09T01:48:02.208Z,8.01
2023-01-09T01:49:02.087Z,8.01
2023-01-09T01:50:02.151Z,8.01
2023-01-09T01:51:02.084Z,8.00
2023-01-09T01:52:02.083Z,8.00
2023-01-09T01:53:02.177Z,8.00
2023-01-09T01:54:02.083Z,7.98
2023-01-09T01:55:02.097Z,7.97
2023-01-09T01:56:02.249Z,7.98
2023-01-09T01:57:02.272Z,7.97
2023-01-09T01:58:02.141Z,7.97
2023-01-09T01:59:02.156Z,7.97
2023-01-09T02:00:02.035Z,7.97
2023-01-09T02:01:02.090Z,7.94
2023-01-09T02:02:02.136Z,7.94
2023-01-09T02:03:02.209Z,7.94
2023-01-09T02:04:01.884Z,7.94
2023-01-09T02:05:01.988Z,7.94
2023-01-09T02:06:02.053Z,7.93
2023-01-09T02:07:02.068Z,7.91
2023-01-09T02:08:02.277Z,7.90
2023-01-09T02:09:02.227Z,7.88
2023-01-09T02:10:01.919Z,7.85
2023-01-09T02:11:02.379Z,7.83
2023-01-09T02:12:02.006Z,7.80
2023-01-09T02:13:01.808Z,7.79
2023-01-09T02:14:01.967Z,7.77
2023-01-09T02:15:02.015Z,7.75
2023-01-09T02:16:01.927Z,7.75
2023-01-09T02:17:01.991Z,7.70
2023-01-09T02:18:01.866Z,7.73
2023-01-09T02:19:01.817Z,7.70
2023-01-09T02:20:01.822Z,7.67
2023-01-09T02:21:02.004Z,7.66
2023-01-09T02:22:01.948Z,7.63
2023-01-09T02:23:01.938Z,7.61
2023-01-09T02:24:01.818Z,7.60
2023-01-09T02:25:01.774Z,7.58
2023-01-09T02:26:01.771Z,7.54
2023-01-09T02:27:01.782Z,7.54
2023-01-09T02:28:01.759Z,7.53
2023-01-09T02:29:02.334Z,7.53
2023-01-09T02:30:01.763Z,7.51
2023-01-09T02:31:01.856Z,7.51
2023-01-09T02:32:01.728Z,7.53
2023-01-09T02:33:01.684Z,7.53
2023-01-09T02:34:01.750Z,7.54
2023-01-09T02:35:01.873Z,7.53
2023-01-09T02:36:01.812Z,7.54
2023-01-09T02:37:02.114Z,7.53
2023-01-09T02:38:01.669Z,7.50
2023-01-09T02:39:01.748Z,7.50
2023-01-09T02:40:01.631Z,7.48
2023-01-09T02:41:02.496Z,7.47
2023-01-09T02:42:01.775Z,7.43
2023-01-09T02:43:01.831Z,7.42
2023-01-09T02:44:01.599Z,7.40
2023-01-09T02:45:01.998Z,7.38
2023-01-09T02:46:01.607Z,7.36
2023-01-09T02:47:01.805Z,7.35
2023-01-09T02:48:01.694Z,7.32
2023-01-09T02:49:01.486Z,7.28
2023-01-09T02:50:01.603Z,7.29
2023-01-09T02:51:01.768Z,7.25
2023-01-09T02:52:01.568Z,7.25
2023-01-09T02:53:01.462Z,7.24
2023-01-09T02:54:01.573Z,7.24
2023-01-09T02:55:01.550Z,7.23
2023-01-09T02:56:01.674Z,7.21
2023-01-09T02:57:01.419Z,7.21
2023-01-09T02:58:01.429Z,7.20
2023-01-09T02:59:01.343Z,7.18
2023-01-09T03:00:01.330Z,7.17
2023-01-09T03:01:01.639Z,7.15
2023-01-09T03:02:01.507Z,7.13
2023-01-09T03:03:01.453Z,7.13
2023-01-09T03:04:01.338Z,7.13
2023-01-09T03:05:01.463Z,7.11
2023-01-09T03:06:01.326Z,7.11
2023-01-09T03:07:01.709Z,7.07
2023-01-09T03:08:01.246Z,7.10
2023-01-09T03:09:01.233Z,7.05
2023-01-09T03:10:01.320Z,7.03
2023-01-09T03:11:01.513Z,7.03
2023-01-09T03:12:01.446Z,7.02
2023-01-09T03:13:01.268Z,6.99
2023-01-09T03:14:01.388Z,6.97
2023-01-09T03:15:01.254Z,6.97
2023-01-09T03:16:01.273Z,6.96
2023-01-09T03:17:01.680Z,6.96
2023-01-09T03:18:01.403Z,6.96
2023-01-09T03:19:01.436Z,6.95
2023-01-09T03:20:01.204Z,6.95
2023-01-09T03:21:01.214Z,6.95
2023-01-09T03:22:01.257Z,6.96
2023-01-09T03:23:01.206Z,6.95
2023-01-09T03:24:01.072Z,6.96
2023-01-09T03:25:01.276Z,6.96
2023-01-09T03:26:01.113Z,6.96
2023-01-09T03:27:01.069Z,6.97
2023-01-09T03:28:01.194Z,6.99
2023-01-09T03:29:01.815Z,6.99
2023-01-09T03:30:01.206Z,7.00
2023-01-09T03:31:01.079Z,7.00
2023-01-09T03:32:01.005Z,7.02
2023-01-09T03:33:01.056Z,7.03
2023-01-09T03:34:01.032Z,7.05
2023-01-09T03:35:00.991Z,7.05
2023-01-09T03:36:00.981Z,7.07
2023-01-09T03:37:01.055Z,7.07
2023-01-09T03:38:01.062Z,7.10
2023-01-09T03:39:01.104Z,7.11
2023-01-09T03:40:00.970Z,7.11
2023-01-09T03:41:01.455Z,7.13
2023-01-09T03:42:01.070Z,7.14
2023-01-09T03:43:01.050Z,7.14
2023-01-09T03:44:00.893Z,7.15
2023-01-09T03:45:00.908Z,7.15
2023-01-09T03:46:00.969Z,7.14
2023-01-09T03:47:00.824Z,7.18
2023-01-09T03:48:00.919Z,7.15
2023-01-09T03:49:00.880Z,7.14
2023-01-09T03:50:00.920Z,7.18
2023-01-09T03:51:01.012Z,7.14
2023-01-09T03:52:01.571Z,7.14
2023-01-09T03:53:01.051Z,7.15
2023-01-09T03:54:00.795Z,7.15
2023-01-09T03:55:00.848Z,7.17
2023-01-09T03:56:00.818Z,7.15
2023-01-09T03:57:00.740Z,7.15
2023-01-09T03:58:00.761Z,7.15
2023-01-09T03:59:00.849Z,7.14
2023-01-09T04:00:01.206Z,7.13
2023-01-09T04:01:00.943Z,7.11
2023-01-09T04:02:03.652Z,7.10
2023-01-09T04:03:00.789Z,7.10
2023-01-09T04:04:00.819Z,7.07
2023-01-09T04:05:00.762Z,7.07
2023-01-09T04:06:00.815Z,7.07
2023-01-09T04:07:00.659Z,7.10
2023-01-09T04:08:00.687Z,7.05
2023-01-09T04:09:00.740Z,7.06
2023-01-09T04:10:00.575Z,7.05
2023-01-09T04:11:00.653Z,7.06
2023-01-09T04:12:00.614Z,7.06
2023-01-09T04:13:00.990Z,7.03
2023-01-09T04:14:00.573Z,7.02
2023-01-09T04:15:00.570Z,7.00
2023-01-09T04:16:02.495Z,6.97
2023-01-09T04:17:00.605Z,6.95
2023-01-09T04:18:00.598Z,6.95
2023-01-09T04:19:00.609Z,6.93
2023-01-09T04:20:00.971Z,6.89
2023-01-09T04:21:00.780Z,6.87
2023-01-09T04:22:00.717Z,6.84
2023-01-09T04:23:00.753Z,6.81
2023-01-09T04:24:00.858Z,6.79
2023-01-09T04:25:01.216Z,6.79
2023-01-09T04:26:00.648Z,6.79
2023-01-09T04:27:00.869Z,6.78
2023-01-09T04:28:00.961Z,6.78
2023-01-09T04:29:00.805Z,6.79
2023-01-09T04:30:00.856Z,6.78
2023-01-09T04:31:00.652Z,6.75
2023-01-09T04:32:00.586Z,6.74
2023-01-09T04:33:00.537Z,6.70
2023-01-09T04:34:01.737Z,6.69
2023-01-09T04:35:00.710Z,6.69
2023-01-09T04:36:00.909Z,6.67
2023-01-09T04:37:00.468Z,6.66
2023-01-09T04:38:00.468Z,6.66
2023-01-09T04:39:00.479Z,6.62
2023-01-09T04:40:00.712Z,6.60
2023-01-09T04:41:00.471Z,6.62
2023-01-09T04:42:00.374Z,6.60
2023-01-09T04:43:00.710Z,6.60
2023-01-09T04:44:00.537Z,6.59
2023-01-09T04:45:00.520Z,6.56
2023-01-09T04:46:01.118Z,6.54
2023-01-09T04:47:00.971Z,6.54
2023-01-09T04:48:00.383Z,6.52
2023-01-09T04:49:00.566Z,6.51
2023-01-09T04:50:00.540Z,6.51
2023-01-09T04:51:00.546Z,6.48
2023-01-09T04:52:00.371Z,6.48
2023-01-09T04:53:00.799Z,6.46
2023-01-09T04:54:00.368Z,6.48
2023-01-09T04:55:00.404Z,6.45
2023-01-09T04:56:00.818Z,6.48
2023-01-09T04:57:01.163Z,6.46
2023-01-09T04:58:00.334Z,6.45
2023-01-09T04:59:00.371Z,6.46
2023-01-09T05:00:00.297Z,6.48
2023-01-09T05:01:00.301Z,6.49
2023-01-09T05:02:00.381Z,6.46
2023-01-09T05:03:00.119Z,6.46
2023-01-09T05:04:00.228Z,6.45
2023-01-09T05:05:00.814Z,6.45
2023-01-09T05:06:00.182Z,6.44
2023-01-09T05:07:00.244Z,6.41
2023-01-09T05:08:00.552Z,6.44
2023-01-09T05:09:00.098Z,6.41
2023-01-09T05:10:00.217Z,6.44
2023-01-09T05:11:00.247Z,6.42
2023-01-09T05:12:01.813Z,6.42
2023-01-09T05:12:59.993Z,6.44
2023-01-09T05:14:00.228Z,6.45
2023-01-09T05:15:00.276Z,6.48
2023-01-09T05:16:00.098Z,6.46
2023-01-09T05:17:00.170Z,6.46
2023-01-09T05:18:00.140Z,6.45
2023-01-09T05:18:59.984Z,6.45
2023-01-09T05:20:00.112Z,6.42
2023-01-09T05:21:00.387Z,6.41
2023-01-09T05:21:59.977Z,6.41
2023-01-09T05:22:59.976Z,6.39
2023-01-09T05:23:59.947Z,6.35
2023-01-09T05:25:00.637Z,6.35
2023-01-09T05:26:00.061Z,6.35
2023-01-09T05:27:00.418Z,6.35
2023-01-09T05:28:00.722Z,6.35
2023-01-09T05:29:00.354Z,6.39
2023-01-09T05:30:00.945Z,6.41
2023-01-09T05:31:00.475Z,6.44
2023-01-09T05:32:00.063Z,6.45
2023-01-09T05:33:00.190Z,6.48
2023-01-09T05:34:00.287Z,6.49
2023-01-09T05:35:00.348Z,6.52
2023-01-09T05:36:00.019Z,6.54
2023-01-09T05:37:00.116Z,6.56
2023-01-09T05:38:01.003Z,6.59
2023-01-09T05:38:59.842Z,6.59
2023-01-09T05:40:00.162Z,6.60
2023-01-09T05:41:01.121Z,6.62
2023-01-09T05:42:00.165Z,6.63
2023-01-09T05:42:59.903Z,6.63
2023-01-09T05:43:59.874Z,6.64
2023-01-09T05:44:59.841Z,6.67
2023-01-09T05:46:00.484Z,6.66
2023-01-09T05:47:01.388Z,6.66
2023-01-09T05:48:00.357Z,6.67
2023-01-09T05:49:00.031Z,6.69
2023-01-09T05:49:59.935Z,6.69
2023-01-09T05:50:59.678Z,6.67
2023-01-09T05:51:59.920Z,6.69
2023-01-09T05:52:59.738Z,6.69
2023-01-09T05:53:59.960Z,6.69
2023-01-09T05:55:00.957Z,6.72
2023-01-09T05:55:59.781Z,6.74
2023-01-09T05:56:59.702Z,6.72
2023-01-09T05:58:01.355Z,6.74
2023-01-09T05:58:59.557Z,6.72
2023-01-09T05:59:59.665Z,6.72
2023-01-09T06:00:59.572Z,6.74
2023-01-09T06:01:59.586Z,6.72
2023-01-09T06:03:00.298Z,6.72
2023-01-09T06:03:59.573Z,6.72
2023-01-09T06:04:59.500Z,6.75
2023-01-09T06:05:59.666Z,6.77
2023-01-09T06:06:59.501Z,6.78
2023-01-09T06:08:00.218Z,6.77
2023-01-09T06:08:59.470Z,6.77
2023-01-09T06:09:59.617Z,6.77
2023-01-09T06:10:59.506Z,6.77
2023-01-09T06:11:59.958Z,6.77
2023-01-09T06:12:59.880Z,6.78
2023-01-09T06:13:59.786Z,6.78
2023-01-09T06:14:59.534Z,6.77
2023-01-09T06:15:59.782Z,6.78
2023-01-09T06:16:59.579Z,6.79
2023-01-09T06:17:59.480Z,6.79
2023-01-09T06:18:59.360Z,6.79
2023-01-09T06:19:59.466Z,6.81
2023-01-09T06:20:59.781Z,6.81
2023-01-09T06:21:59.461Z,6.79
2023-01-09T06:22:59.512Z,6.79
2023-01-09T06:23:59.339Z,6.78
2023-01-09T06:24:59.572Z,6.79
2023-01-09T06:25:59.416Z,6.78
2023-01-09T06:26:59.756Z,6.79
2023-01-09T06:27:59.293Z,6.79
2023-01-09T06:28:59.335Z,6.79
2023-01-09T06:29:59.390Z,6.81
2023-01-09T06:31:00.081Z,6.81
2023-01-09T06:31:59.589Z,6.84
2023-01-09T06:33:00.172Z,6.82
2023-01-09T06:33:59.714Z,6.82
2023-01-09T06:34:59.435Z,6.82
2023-01-09T06:35:59.399Z,6.81
2023-01-09T06:36:59.288Z,6.81
2023-01-09T06:37:59.640Z,6.81
2023-01-09T06:38:59.308Z,6.81
2023-01-09T06:39:59.450Z,6.82
2023-01-09T06:40:59.108Z,6.84
2023-01-09T06:41:59.571Z,6.84
2023-01-09T06:42:59.652Z,6.82
2023-01-09T06:43:59.841Z,6.85
2023-01-09T06:44:59.788Z,6.84
2023-01-09T06:45:59.208Z,6.84
2023-01-09T06:46:59.778Z,6.84
2023-01-09T06:47:59.477Z,6.87
2023-01-09T06:48:59.399Z,6.88
2023-01-09T06:49:59.225Z,6.87
2023-01-09T06:50:58.929Z,6.85
2023-01-09T06:51:58.895Z,6.85
2023-01-09T06:52:58.901Z,6.82
2023-01-09T06:53:58.879Z,6.81
2023-01-09T06:54:58.907Z,6.81
2023-01-09T06:55:58.874Z,6.81
2023-01-09T06:56:58.829Z,6.79
2023-01-09T06:57:58.834Z,6.79
2023-01-09T06:58:58.845Z,6.78
2023-01-09T06:59:58.814Z,6.78
2023-01-09T07:00:58.871Z,6.78
2023-01-09T07:01:58.893Z,6.78
2023-01-09T07:02:58.773Z,6.77
2023-01-09T07:03:58.833Z,6.75
2023-01-09T07:04:58.714Z,6.75
2023-01-09T07:05:58.763Z,6.72
2023-01-09T07:06:58.674Z,6.72
2023-01-09T07:07:58.706Z,6.72
2023-01-09T07:08:58.678Z,6.70
2023-01-09T07:09:58.656Z,6.72
2023-01-09T07:10:58.642Z,6.70
2023-01-09T07:11:58.613Z,6.69
2023-01-09T07:12:58.648Z,6.69
2023-01-09T07:13:58.677Z,6.67
2023-01-09T07:14:58.648Z,6.64
2023-01-09T07:15:58.684Z,6.64
2023-01-09T07:16:58.579Z,6.62
2023-01-09T07:17:58.560Z,6.63
2023-01-09T07:18:58.694Z,6.62
2023-01-09T07:19:58.579Z,6.60
2023-01-09T07:20:58.560Z,6.60
2023-01-09T07:21:58.534Z,6.60
2023-01-09T07:22:58.580Z,6.63
2023-01-09T07:23:58.532Z,6.63
2023-01-09T07:24:58.516Z,6.62
2023-01-09T07:25:58.518Z,6.63
2023-01-09T07:26:58.506Z,6.63
2023-01-09T07:27:58.471Z,6.66
2023-01-09T07:28:58.505Z,6.66
2023-01-09T07:29:58.514Z,6.66
2023-01-09T07:30:58.567Z,6.67
2023-01-09T07:31:58.420Z,6.66
2023-01-09T07:32:58.422Z,6.67
2023-01-09T07:33:58.402Z,6.69
2023-01-09T07:34:58.467Z,6.69
2023-01-09T07:35:58.413Z,6.70
2023-01-09T07:36:58.405Z,6.72
2023-01-09T07:37:58.417Z,6.74
2023-01-09T07:38:58.344Z,6.75
2023-01-09T07:39:58.347Z,6.75
2023-01-09T07:40:58.353Z,6.78
2023-01-09T07:41:58.353Z,6.78
2023-01-09T07:42:58.313Z,6.79
2023-01-09T07:43:58.307Z,6.79
2023-01-09T07:44:58.286Z,6.79
2023-01-09T07:45:58.331Z,6.82
2023-01-09T07:46:58.288Z,6.85
2023-01-09T07:47:58.295Z,6.88
2023-01-09T07:48:58.272Z,6.89
2023-01-09T07:49:58.228Z,6.92
2023-01-09T07:50:58.211Z,6.92
2023-01-09T07:51:58.208Z,6.93
2023-01-09T07:52:58.204Z,6.97
2023-01-09T07:53:58.244Z,6.99
2023-01-09T07:54:58.185Z,7.00
2023-01-09T07:55:58.176Z,7.00
2023-01-09T07:56:58.151Z,7.03
2023-01-09T07:57:58.212Z,7.05
2023-01-09T07:58:58.230Z,7.06
2023-01-09T07:59:58.153Z,7.07
2023-01-09T08:00:58.172Z,7.06
2023-01-09T08:01:58.446Z,7.07
2023-01-09T08:02:58.172Z,7.11
2023-01-09T08:03:58.099Z,7.11
2023-01-09T08:04:58.054Z,7.11
2023-01-09T08:05:58.057Z,7.14
2023-01-09T08:06:58.072Z,7.14
2023-01-09T08:07:58.057Z,7.14
2023-01-09T08:08:58.041Z,7.17
2023-01-09T08:09:58.079Z,7.20
2023-01-09T08:10:58.051Z,7.20
2023-01-09T08:11:58.050Z,7.21
2023-01-09T08:12:57.998Z,7.20
2023-01-09T08:13:57.984Z,7.21
2023-01-09T08:14:57.951Z,7.21
2023-01-09T08:15:58.038Z,7.20
2023-01-09T08:16:57.957Z,7.21
2023-01-09T08:17:58.078Z,7.24
2023-01-09T08:18:57.965Z,7.25
2023-01-09T08:19:57.923Z,7.25
2023-01-09T08:20:57.915Z,7.25
2023-01-09T08:21:57.907Z,7.24
2023-01-09T08:22:57.975Z,7.25
2023-01-09T08:23:57.945Z,7.24
2023-01-09T08:24:57.870Z,7.23
2023-01-09T08:25:57.875Z,7.23
2023-01-09T08:26:57.899Z,7.25
2023-01-09T08:27:57.844Z,7.24
2023-01-09T08:28:57.841Z,7.24
2023-01-09T08:29:57.850Z,7.28
2023-01-09T08:30:57.854Z,7.25
2023-01-09T08:31:57.785Z,7.25
2023-01-09T08:32:57.781Z,7.25
2023-01-09T08:33:57.763Z,7.25
2023-01-09T08:34:57.886Z,7.28
2023-01-09T08:35:57.778Z,7.29
2023-01-09T08:36:57.728Z,7.31
2023-01-09T08:37:57.708Z,7.29
2023-01-09T08:38:57.724Z,7.29
2023-01-09T08:39:57.786Z,7.29
2023-01-09T08:40:57.687Z,7.28
2023-01-09T08:41:57.704Z,7.25
2023-01-09T08:42:57.713Z,7.24
2023-01-09T08:43:58.591Z,7.24
2023-01-09T08:44:57.674Z,7.24
2023-01-09T08:45:57.631Z,7.24
2023-01-09T08:46:57.671Z,7.23
2023-01-09T08:47:57.662Z,7.23
2023-01-09T08:48:57.607Z,7.23
2023-01-09T08:49:57.603Z,7.24
2023-01-09T08:50:57.618Z,7.21
2023-01-09T08:51:57.588Z,7.25
2023-01-09T08:52:57.582Z,7.31
2023-01-09T08:53:57.589Z,7.31
2023-01-09T08:54:57.589Z,7.33
2023-01-09T08:55:57.560Z,7.38
2023-01-09T08:56:57.502Z,7.36
2023-01-09T08:57:57.546Z,7.36
2023-01-09T08:58:57.528Z,7.36
2023-01-09T08:59:57.510Z,7.35
2023-01-09T09:00:57.490Z,7.36
2023-01-09T09:01:57.512Z,7.35
2023-01-09T09:02:57.498Z,7.36
2023-01-09T09:03:57.463Z,7.35
2023-01-09T09:04:57.438Z,7.38
2023-01-09T09:05:57.411Z,7.38
2023-01-09T09:06:57.441Z,7.38
2023-01-09T09:07:57.409Z,7.39
2023-01-09T09:08:57.396Z,7.40
2023-01-09T09:09:57.427Z,7.40
2023-01-09T09:10:57.429Z,7.39
2023-01-09T09:11:57.368Z,7.39
2023-01-09T09:12:57.374Z,7.38
2023-01-09T09:13:57.351Z,7.39
2023-01-09T09:14:57.325Z,7.38
2023-01-09T09:15:57.447Z,7.39
2023-01-09T09:16:57.354Z,7.39
2023-01-09T09:17:57.288Z,7.39
2023-01-09T09:18:57.300Z,7.39
2023-01-09T09:19:57.311Z,7.38
2023-01-09T09:20:57.278Z,7.35
2023-01-09T09:21:57.267Z,7.33
2023-01-09T09:22:57.245Z,7.32
2023-01-09T09:23:57.233Z,7.31
2023-01-09T09:24:57.225Z,7.29
2023-01-09T09:25:57.223Z,7.32
2023-01-09T09:26:57.204Z,7.29
2023-01-09T09:27:57.203Z,7.31
2023-01-09T09:28:57.207Z,7.31
2023-01-09T09:29:57.172Z,7.32
2023-01-09T09:30:57.189Z,7.32
2023-01-09T09:31:58.920Z,7.32
2023-01-09T09:32:57.140Z,7.32
2023-01-09T09:33:57.172Z,7.32
2023-01-09T09:34:57.166Z,7.33
2023-01-09T09:35:57.115Z,7.33
2023-01-09T09:36:57.112Z,7.36
2023-01-09T09:37:57.108Z,7.38
2023-01-09T09:38:57.097Z,7.40
2023-01-09T09:39:58.079Z,7.38
2023-01-09T09:40:57.125Z,7.39
2023-01-09T09:41:57.049Z,7.39
2023-01-09T09:42:57.072Z,7.39
2023-01-09T09:43:57.016Z,7.39
2023-01-09T09:44:57.051Z,7.40
2023-01-09T09:45:57.080Z,7.40
2023-01-09T09:46:56.993Z,7.40
2023-01-09T09:47:57.000Z,7.43
2023-01-09T09:48:57.000Z,7.43
2023-01-09T09:49:56.967Z,7.43
2023-01-09T09:50:57.077Z,7.43
2023-01-09T09:51:56.972Z,7.43
2023-01-09T09:52:56.925Z,7.48
2023-01-09T09:53:56.922Z,7.50
2023-01-09T09:54:56.930Z,7.50
2023-01-09T09:55:56.872Z,7.54
2023-01-09T09:56:56.949Z,7.53
2023-01-09T09:57:56.915Z,7.56
2023-01-09T09:58:56.884Z,7.56
2023-01-09T09:59:56.878Z,7.56
2023-01-09T10:00:56.835Z,7.56
2023-01-09T10:01:56.819Z,7.56
2023-01-09T10:02:56.902Z,7.56
2023-01-09T10:03:56.887Z,7.57
2023-01-09T10:04:56.834Z,7.57
2023-01-09T10:05:56.791Z,7.60
2023-01-09T10:06:56.824Z,7.58
2023-01-09T10:07:59.456Z,7.58
2023-01-09T10:08:56.830Z,7.60
2023-01-09T10:09:56.792Z,7.60
2023-01-09T10:10:56.754Z,7.60
2023-01-09T10:11:56.726Z,7.60
2023-01-09T10:12:56.756Z,7.58
2023-01-09T10:13:56.722Z,7.58
2023-01-09T10:14:56.694Z,7.60
2023-01-09T10:15:56.790Z,7.60
2023-01-09T10:16:56.777Z,7.58
2023-01-09T10:17:56.658Z,7.58
2023-01-09T10:18:56.643Z,7.58
2023-01-09T10:19:56.704Z,7.60
2023-01-09T10:20:56.693Z,7.58
2023-01-09T10:21:56.638Z,7.60
2023-01-09T10:22:56.664Z,7.61
2023-01-09T10:23:56.619Z,7.61
2023-01-09T10:24:56.601Z,7.61
2023-01-09T10:25:56.613Z,7.60
2023-01-09T10:26:56.577Z,7.60
2023-01-09T10:27:56.550Z,7.58
2023-01-09T10:28:56.629Z,7.57
2023-01-09T10:29:56.555Z,7.57
2023-01-09T10:30:56.535Z,7.58
2023-01-09T10:31:56.532Z,7.58
2023-01-09T10:32:56.556Z,7.58
2023-01-09T10:33:56.543Z,7.63
2023-01-09T10:34:56.493Z,7.67
2023-01-09T10:35:56.524Z,7.66
2023-01-09T10:36:56.531Z,7.66
2023-01-09T10:37:56.454Z,7.67
2023-01-09T10:38:56.522Z,7.69
2023-01-09T10:39:56.439Z,7.69
2023-01-09T10:41:01.325Z,7.70
2023-01-09T10:41:56.446Z,7.72
2023-01-09T10:42:56.460Z,7.70
2023-01-09T10:43:56.379Z,7.72
2023-01-09T10:44:56.428Z,7.72
2023-01-09T10:45:56.364Z,7.72
2023-01-09T10:46:56.437Z,7.72
2023-01-09T10:47:56.362Z,7.70
2023-01-09T10:48:56.345Z,7.69
2023-01-09T10:49:56.313Z,7.72
2023-01-09T10:50:56.507Z,7.69
2023-01-09T10:51:56.327Z,7.70
2023-01-09T10:52:56.295Z,7.70
2023-01-09T10:53:56.298Z,7.70
2023-01-09T10:54:56.332Z,7.70
2023-01-09T10:55:56.240Z,7.67
2023-01-09T10:56:56.260Z,7.66
2023-01-09T10:57:56.262Z,7.63
2023-01-09T10:58:56.252Z,7.66
2023-01-09T10:59:56.260Z,7.61
2023-01-09T11:00:56.237Z,7.63
2023-01-09T11:01:56.244Z,7.66
2023-01-09T11:02:56.184Z,7.63
2023-01-09T11:03:56.189Z,7.67
2023-01-09T11:04:56.159Z,7.67
2023-01-09T11:05:56.168Z,7.73
2023-01-09T11:06:56.143Z,7.76
2023-01-09T11:07:56.168Z,7.77
2023-01-09T11:08:56.132Z,7.80
2023-01-09T11:09:56.095Z,7.87
2023-01-09T11:10:56.118Z,7.90
2023-01-09T11:11:56.092Z,7.93
2023-01-09T11:12:56.107Z,7.93
2023-01-09T11:13:56.169Z,7.95
2023-01-09T11:14:56.074Z,7.95
2023-01-09T11:15:56.292Z,7.95
2023-01-09T11:16:56.060Z,7.98
2023-01-09T11:17:56.215Z,8.00
2023-01-09T11:18:56.248Z,7.98
2023-01-09T11:19:56.067Z,7.97
2023-01-09T11:20:56.120Z,7.95
2023-01-09T11:21:56.028Z,7.94
2023-01-09T11:22:55.953Z,7.95
2023-01-09T11:23:55.972Z,7.97
2023-01-09T11:24:56.042Z,7.95
2023-01-09T11:25:55.967Z,7.97
2023-01-09T11:26:55.925Z,7.97
2023-01-09T11:27:55.915Z,7.98
2023-01-09T11:28:55.929Z,8.00
2023-01-09T11:29:55.872Z,8.01
2023-01-09T11:30:55.988Z,8.01
2023-01-09T11:31:55.875Z,7.98
2023-01-09T11:32:55.888Z,7.98
2023-01-09T11:33:55.858Z,7.98
2023-01-09T11:34:55.898Z,8.00
2023-01-09T11:35:55.851Z,8.01
2023-01-09T11:36:55.891Z,8.08
2023-01-09T11:37:55.845Z,8.05
2023-01-09T11:38:55.841Z,8.06
2023-01-09T11:39:55.783Z,8.05
2023-01-09T11:40:55.799Z,8.06
2023-01-09T11:41:55.758Z,8.03
2023-01-09T11:42:55.782Z,8.01
2023-01-09T11:43:55.755Z,7.98
2023-01-09T11:44:55.730Z,8.00
2023-01-09T11:46:00.964Z,7.98
2023-01-09T11:46:55.782Z,7.97
2023-01-09T11:47:55.716Z,7.98
2023-01-09T11:48:55.737Z,8.00
2023-01-09T11:49:55.726Z,8.00
2023-01-09T11:50:55.726Z,7.98
2023-01-09T11:51:55.665Z,7.97
2023-01-09T11:52:55.661Z,8.00
2023-01-09T11:53:55.627Z,8.03
2023-01-09T11:54:55.782Z,8.03
2023-01-09T11:55:55.652Z,8.05
2023-01-09T11:56:55.992Z,8.06
2023-01-09T11:57:55.632Z,8.08
2023-01-09T11:58:55.869Z,8.09
2023-01-09T11:59:55.718Z,8.12
2023-01-09T12:00:55.672Z,8.12
2023-01-09T12:01:55.586Z,8.10
2023-01-09T12:02:55.603Z,8.12
2023-01-09T12:03:55.598Z,8.08
2023-01-09T12:04:55.606Z,8.09
2023-01-09T12:05:55.571Z,8.12
2023-01-09T12:06:55.543Z,8.13
2023-01-09T12:07:55.486Z,8.12
2023-01-09T12:08:55.493Z,8.13
2023-01-09T12:09:55.488Z,8.10
2023-01-09T12:10:55.487Z,8.13
2023-01-09T12:11:55.482Z,8.13
2023-01-09T12:12:55.463Z,8.13
2023-01-09T12:13:55.415Z,8.13
2023-01-09T12:14:55.453Z,8.12
2023-01-09T12:15:55.447Z,8.13
2023-01-09T12:16:55.391Z,8.12
2023-01-09T12:17:55.420Z,8.13
2023-01-09T12:18:55.426Z,8.12
2023-01-09T12:19:55.400Z,8.12
2023-01-09T12:20:55.395Z,8.12
2023-01-09T12:21:55.359Z,8.10
2023-01-09T12:22:55.330Z,8.12
2023-01-09T12:23:55.342Z,8.12
2023-01-09T12:24:55.332Z,8.12
2023-01-09T12:25:55.324Z,8.10
2023-01-09T12:26:55.301Z,8.10
2023-01-09T12:27:55.317Z,8.10
2023-01-09T12:28:55.314Z,8.09
2023-01-09T12:29:55.270Z,8.08
2023-01-09T12:30:55.240Z,8.06
2023-01-09T12:31:55.465Z,8.05
2023-01-09T12:32:55.229Z,8.05
2023-01-09T12:33:55.252Z,8.01
2023-01-09T12:34:55.275Z,8.01
2023-01-09T12:35:55.221Z,8.03
2023-01-09T12:36:55.257Z,8.00
2023-01-09T12:37:55.245Z,8.00
2023-01-09T12:38:55.171Z,8.00
2023-01-09T12:39:55.153Z,8.05
2023-01-09T12:40:55.137Z,8.05
2023-01-09T12:41:55.127Z,8.06
2023-01-09T12:42:55.119Z,8.06
2023-01-09T12:43:55.163Z,8.10
2023-01-09T12:44:55.115Z,8.13
2023-01-09T12:45:55.119Z,8.12
2023-01-09T12:46:55.109Z,8.12
2023-01-09T12:47:55.083Z,8.12
2023-01-09T12:48:55.100Z,8.10
2023-01-09T12:49:55.033Z,8.09
2023-01-09T12:50:55.051Z,8.06
2023-01-09T12:51:55.039Z,8.03
2023-01-09T12:52:55.034Z,8.01
2023-01-09T12:53:55.027Z,8.03
2023-01-09T12:54:55.017Z,7.98
2023-01-09T12:55:54.971Z,7.98
2023-01-09T12:56:54.978Z,7.95
2023-01-09T12:57:54.973Z,7.97
2023-01-09T12:58:54.946Z,7.93
2023-01-09T12:59:54.927Z,7.93
2023-01-09T13:00:54.984Z,7.91
2023-01-09T13:01:54.958Z,7.93
2023-01-09T13:03:03.576Z,7.91
2023-01-09T13:03:54.875Z,7.87
2023-01-09T13:04:54.969Z,7.88
2023-01-09T13:05:54.884Z,7.88
2023-01-09T13:06:54.874Z,7.85
2023-01-09T13:07:54.856Z,7.85
2023-01-09T13:08:54.874Z,7.83
2023-01-09T13:09:54.807Z,7.83
2023-01-09T13:10:54.925Z,7.83
2023-01-09T13:11:54.827Z,7.85
2023-01-09T13:12:54.793Z,7.88
2023-01-09T13:13:54.777Z,7.87
2023-01-09T13:14:54.795Z,7.90
2023-01-09T13:15:54.781Z,7.90
2023-01-09T13:16:54.789Z,7.90
2023-01-09T13:17:54.726Z,7.91
2023-01-09T13:18:54.787Z,7.90
2023-01-09T13:19:54.735Z,7.87